createdAt,value
2023-01-09T00:00:24.007Z,97920.88
2023-01-09T00:02:55.008Z,97930.55
2023-01-09T00:05:26.357Z,97931.41
2023-01-09T00:07:57.010Z,97929.20
2023-01-09T00:10:27.640Z,97929.80
2023-01-09T00:12:58.401Z,97922.29
2023-01-09T00:15:29.237Z,97914.23
2023-01-09T00:17:59.826Z,97909.60
2023-01-09T00:20:30.508Z,97905.00
2023-01-09T00:23:01.248Z,97892.23
2023-01-09T00:25:32.056Z,97891.70
2023-01-09T00:28:02.843Z,97890.77
2023-01-09T00:30:33.685Z,97890.36
2023-01-09T00:33:04.675Z,97885.56
2023-01-09T00:35:35.894Z,97890.92
2023-01-09T00:38:06.596Z,97886.35
2023-01-09T00:40:37.280Z,97886.27
2023-01-09T00:43:08.358Z,97886.53
2023-01-09T00:45:39.235Z,97888.33
2023-01-09T00:48:14.581Z,97888.34
2023-01-09T00:50:46.608Z,97885.67
2023-01-09T00:53:23.337Z,97878.32
2023-01-09T00:55:55.356Z,97874.33
2023-01-09T00:58:26.191Z,97868.59
2023-01-09T01:00:57.006Z,97863.21
2023-01-09T01:03:27.896Z,97865.46
2023-01-09T01:06:16.741Z,97863.47
2023-01-09T01:08:47.591Z,97859.10
2023-01-09T01:11:18.306Z,97852.73
2023-01-09T01:13:48.942Z,97852.88
2023-01-09T01:16:19.809Z,97846.86
2023-01-09T01:18:50.827Z,97840.34
2023-01-09T01:21:21.797Z,97842.19
2023-01-09T01:23:52.828Z,97836.43
2023-01-09T01:26:23.566Z,97832.31
2023-01-09T01:28:54.231Z,97829.58
2023-01-09T01:31:24.950Z,97817.56
2023-01-09T01:33:55.676Z,97805.82
2023-01-09T01:36:26.824Z,97797.43
2023-01-09T01:38:57.652Z,97794.02
2023-01-09T01:41:30.521Z,97795.59
2023-01-09T01:44:03.310Z,97791.41
2023-01-09T01:46:35.594Z,97780.46
2023-01-09T01:49:13.204Z,97769.45
2023-01-09T01:51:48.446Z,97767.12
2023-01-09T01:54:23.272Z,97757.86
2023-01-09T01:56:58.509Z,97755.44
2023-01-09T01:59:33.845Z,97748.33
2023-01-09T02:02:05.667Z,97739.17
2023-01-09T02:04:40.561Z,97736.71
2023-01-09T02:07:12.634Z,97726.23
2023-01-09T02:09:46.260Z,97725.88
2023-01-09T02:12:23.763Z,97712.98
2023-01-09T02:14:58.905Z,97705.05
2023-01-09T02:17:47.401Z,97703.84
2023-01-09T02:20:39.408Z,97696.10
2023-01-09T02:23:24.738Z,97682.54
2023-01-09T02:26:30.341Z,97672.50
2023-01-09T02:29:28.172Z,97658.17
2023-01-09T02:32:06.163Z,97652.95
2023-01-09T02:34:46.759Z,97649.08
2023-01-09T02:37:24.729Z,97637.94
2023-01-09T02:40:04.607Z,97634.61
2023-01-09T02:42:37.408Z,97634.59
2023-01-09T02:45:09.124Z,97636.93
2023-01-09T02:47:43.054Z,97642.71
2023-01-09T02:50:18.427Z,97642.44
2023-01-09T02:53:19.015Z,97639.88
2023-01-09T02:56:09.588Z,97634.67
2023-01-09T02:59:15.751Z,97633.33
2023-01-09T03:01:56.693Z,97628.45
2023-01-09T03:04:35.142Z,97627.05
2023-01-09T03:07:15.186Z,97625.41
2023-01-09T03:09:50.446Z,97619.71
2023-01-09T03:12:24.720Z,97619.43
2023-01-09T03:14:58.463Z,97615.93
2023-01-09T03:17:31.105Z,97614.72
2023-01-09T03:20:05.632Z,97609.61
2023-01-09T03:22:36.245Z,97606.97
2023-01-09T03:25:07.923Z,97601.28
2023-01-09T03:27:38.937Z,97597.97
2023-01-09T03:30:12.470Z,97593.65
2023-01-09T03:32:43.106Z,97592.21
2023-01-09T03:35:13.983Z,97590.20
2023-01-09T03:37:44.715Z,97584.77
2023-01-09T03:40:16.244Z,97581.23
2023-01-09T03:42:47.018Z,97577.56
2023-01-09T03:45:17.952Z,97577.54
2023-01-09T03:47:48.915Z,97574.89
2023-01-09T03:50:20.593Z,97573.69
2023-01-09T03:52:51.327Z,97572.10
2023-01-09T03:55:22.417Z,97566.94
2023-01-09T03:57:53.277Z,97564.61
2023-01-09T04:00:24.913Z,97560.16
2023-01-09T04:02:55.630Z,97555.14
2023-01-09T04:05:27.155Z,97550.46
2023-01-09T04:07:57.867Z,97555.46
2023-01-09T04:10:28.567Z,97554.17
2023-01-09T04:12:59.478Z,97554.42
2023-01-09T04:15:30.134Z,97562.80
2023-01-09T04:18:00.766Z,97560.33
2023-01-09T04:20:31.953Z,97555.86
2023-01-09T04:23:03.075Z,97550.50
2023-01-09T04:25:34.274Z,97547.02
2023-01-09T04:28:05.112Z,97543.80
2023-01-09T04:30:35.703Z,97536.69
2023-01-09T04:33:06.497Z,97541.29
2023-01-09T04:35:37.159Z,97540.02
2023-01-09T04:38:07.852Z,97536.48
2023-01-09T04:40:38.495Z,97534.78
2023-01-09T04:43:09.173Z,97531.55
2023-01-09T04:45:40.135Z,97531.93
2023-01-09T04:48:10.904Z,97532.64
2023-01-09T04:50:41.639Z,97536.16
2023-01-09T04:53:12.888Z,97544.35
2023-01-09T04:55:43.635Z,97536.41
2023-01-09T04:58:14.325Z,97542.21
2023-01-09T05:00:45.379Z,97543.98
2023-01-09T05:03:16.067Z,97550.66
2023-01-09T05:05:46.990Z,97558.02
2023-01-09T05:08:17.635Z,97552.83
2023-01-09T05:10:48.258Z,97552.75
2023-01-09T05:13:18.934Z,97550.41
2023-01-09T05:15:49.714Z,97548.80
2023-01-09T05:18:20.554Z,97538.59
2023-01-09T05:20:51.266Z,97534.81
2023-01-09T05:23:22.459Z,97524.06
2023-01-09T05:25:53.150Z,97519.31
2023-01-09T05:28:24.038Z,97524.11
2023-01-09T05:30:54.953Z,97532.59
2023-01-09T05:33:26.018Z,97533.34
2023-01-09T05:35:56.702Z,97532.15
2023-01-09T05:38:27.485Z,97530.31
2023-01-09T05:40:58.454Z,97530.42
2023-01-09T05:43:29.384Z,97522.11
2023-01-09T05:46:00.471Z,97511.11
2023-01-09T05:48:31.474Z,97511.00
2023-01-09T05:51:02.433Z,97507.42
2023-01-09T05:53:33.474Z,97503.55
2023-01-09T05:56:04.475Z,97499.62
2023-01-09T05:58:35.328Z,97492.48
2023-01-09T06:01:06.351Z,97493.49
2023-01-09T06:03:37.303Z,97499.27
2023-01-09T06:06:09.242Z,97494.22
2023-01-09T06:08:40.050Z,97491.95
2023-01-09T06:11:10.898Z,97497.18
2023-01-09T06:13:41.830Z,97500.55
2023-01-09T06:16:14.131Z,97498.35
2023-01-09T06:18:44.886Z,97504.27
2023-01-09T06:21:15.624Z,97512.25
2023-01-09T06:23:46.431Z,97509.26
2023-01-09T06:26:17.326Z,97510.61
2023-01-09T06:28:48.125Z,97505.05
2023-01-09T06:31:18.897Z,97503.11
2023-01-09T06:33:50.098Z,97500.48
2023-01-09T06:36:22.576Z,97505.05
2023-01-09T06:38:53.824Z,97512.91
2023-01-09T06:41:24.416Z,97508.85
2023-01-09T06:43:55.314Z,97512.09
2023-01-09T06:46:25.993Z,97510.67
2023-01-09T06:48:56.857Z,97514.73
2023-01-09T06:51:27.801Z,97513.48
2023-01-09T06:53:58.723Z,97514.14
2023-01-09T06:56:30.006Z,97512.95
2023-01-09T06:59:01.548Z,97506.63
2023-01-09T07:01:32.237Z,97518.21
2023-01-09T07:04:05.351Z,97521.32
2023-01-09T07:06:36.220Z,97522.23
2023-01-09T07:09:07.798Z,97525.81
2023-01-09T07:11:38.463Z,97542.02
2023-01-09T07:14:09.367Z,97541.25
2023-01-09T07:16:40.032Z,97542.92
2023-01-09T07:19:10.944Z,97549.91
2023-01-09T07:21:41.673Z,97554.38
2023-01-09T07:24:13.124Z,97545.36
2023-01-09T07:26:43.861Z,97553.63
2023-01-09T07:29:14.611Z,97556.88
2023-01-09T07:31:45.348Z,97555.33
2023-01-09T07:34:16.063Z,97565.69
2023-01-09T07:36:48.888Z,97572.27
2023-01-09T07:39:19.609Z,97574.39
2023-01-09T07:41:50.288Z,97578.38
2023-01-09T07:44:21.384Z,97569.71
2023-01-09T07:46:52.119Z,97576.88
2023-01-09T07:49:22.960Z,97571.89
2023-01-09T07:51:53.706Z,97574.52
2023-01-09T07:54:25.955Z,97571.52
2023-01-09T07:56:57.016Z,97570.48
2023-01-09T07:59:29.707Z,97567.43
2023-01-09T08:02:02.403Z,97566.36
2023-01-09T08:04:33.165Z,97560.61
2023-01-09T08:07:04.365Z,97555.76
2023-01-09T08:09:37.344Z,97549.12
2023-01-09T08:12:08.624Z,97552.38
2023-01-09T08:14:39.279Z,97551.73
2023-01-09T08:17:11.710Z,97552.36
2023-01-09T08:19:44.063Z,97553.95
2023-01-09T08:22:14.711Z,97552.48
2023-01-09T08:24:45.535Z,97550.48
2023-01-09T08:27:16.306Z,97556.06
2023-01-09T08:29:47.045Z,97562.34
2023-01-09T08:32:17.999Z,97559.59
2023-01-09T08:34:48.753Z,97557.42
2023-01-09T08:37:19.856Z,97553.32
2023-01-09T08:39:50.716Z,97559.09
2023-01-09T08:42:38.995Z,97562.77
2023-01-09T08:45:30.368Z,97568.60
2023-01-09T08:48:01.198Z,97575.13
2023-01-09T08:50:31.943Z,97582.13
2023-01-09T08:53:02.595Z,97590.21
2023-01-09T08:55:33.423Z,97594.60
2023-01-09T08:58:04.628Z,97598.09
2023-01-09T09:00:35.508Z,97604.42
2023-01-09T09:03:06.620Z,97607.31
2023-01-09T09:05:37.633Z,97612.88
2023-01-09T09:08:08.810Z,97611.23
2023-01-09T09:10:39.783Z,97616.83
2023-01-09T09:13:10.466Z,97623.28
2023-01-09T09:15:41.395Z,97626.34
2023-01-09T09:18:12.532Z,97628.02
2023-01-09T09:20:43.468Z,97630.48
2023-01-09T09:23:14.198Z,97631.17
2023-01-09T09:25:45.015Z,97633.52
2023-01-09T09:28:15.775Z,97636.96
2023-01-09T09:30:46.507Z,97640.85
2023-01-09T09:33:17.204Z,97636.45
2023-01-09T09:35:48.421Z,97638.79
2023-01-09T09:38:19.342Z,97634.65
2023-01-09T09:41:03.994Z,97636.80
2023-01-09T09:44:13.102Z,97639.77
2023-01-09T09:46:51.604Z,97639.00
2023-01-09T09:49:28.185Z,97639.52
2023-01-09T09:52:10.503Z,97637.02
2023-01-09T09:54:46.031Z,97639.16
2023-01-09T09:57:20.833Z,97638.08
2023-01-09T09:59:52.121Z,97637.11
2023-01-09T10:02:34.078Z,97638.86
2023-01-09T10:05:12.309Z,97639.42
2023-01-09T10:07:51.164Z,97640.33
2023-01-09T10:10:31.485Z,97637.54
2023-01-09T10:13:24.513Z,97639.44
2023-01-09T10:16:06.007Z,97638.79
2023-01-09T10:18:48.610Z,97635.14
2023-01-09T10:21:27.771Z,97636.54
2023-01-09T10:24:29.311Z,97632.20
2023-01-09T10:27:17.657Z,97628.23
2023-01-09T10:30:00.547Z,97628.31
2023-01-09T10:32:52.380Z,97626.20
2023-01-09T10:36:01.297Z,97633.17
2023-01-09T10:38:36.752Z,97638.20
2023-01-09T10:41:12.086Z,97648.16
2023-01-09T10:43:50.539Z,97652.61
2023-01-09T10:46:25.654Z,97658.09
2023-01-09T10:49:00.821Z,97660.21
2023-01-09T10:51:37.585Z,97663.85
2023-01-09T10:54:15.445Z,97665.06
2023-01-09T10:56:52.174Z,97659.61
2023-01-09T10:59:23.670Z,97652.30
2023-01-09T11:01:55.156Z,97655.05
2023-01-09T11:04:31.242Z,97655.59
2023-01-09T11:07:04.668Z,97660.69
2023-01-09T11:09:59.525Z,97659.84
2023-01-09T11:12:31.906Z,97655.00
2023-01-09T11:15:28.981Z,97661.60
2023-01-09T11:18:19.932Z,97661.73
2023-01-09T11:20:50.831Z,97664.45
2023-01-09T11:23:32.440Z,97668.24
2023-01-09T11:26:04.048Z,97668.39
2023-01-09T11:28:34.749Z,97667.97
2023-01-09T11:31:06.150Z,97667.85
2023-01-09T11:33:42.916Z,97664.16
2023-01-09T11:36:19.124Z,97664.44
2023-01-09T11:38:53.480Z,97665.59
2023-01-09T11:41:27.671Z,97666.86
2023-01-09T11:44:00.953Z,97667.27
2023-01-09T11:46:37.561Z,97667.46
2023-01-09T11:49:23.779Z,97666.16
2023-01-09T11:52:15.806Z,97663.35
2023-01-09T11:54:47.175Z,97665.13
2023-01-09T11:57:18.456Z,97661.88
2023-01-09T11:59:49.259Z,97664.67
2023-01-09T12:02:47.141Z,97656.64
2023-01-09T12:05:31.363Z,97658.08
2023-01-09T12:08:24.467Z,97659.98
2023-01-09T12:11:11.779Z,97660.61
2023-01-09T12:14:36.505Z,97665.14
2023-01-09T12:17:46.477Z,97669.99
2023-01-09T12:20:39.613Z,97672.65
2023-01-09T12:23:25.255Z,97670.24
2023-01-09T12:26:12.269Z,97666.23
2023-01-09T12:28:55.370Z,97662.16
2023-01-09T12:31:43.907Z,97661.05
2023-01-09T12:34:27.689Z,97669.30
2023-01-09T12:37:12.163Z,97672.09
2023-01-09T12:39:52.575Z,97669.63
2023-01-09T12:42:47.091Z,97679.86
2023-01-09T12:45:43.816Z,97686.75
2023-01-09T12:48:31.515Z,97699.19
2023-01-09T12:51:27.220Z,97700.94
2023-01-09T12:54:05.298Z,97704.23
2023-01-09T12:56:40.485Z,97704.13
2023-01-09T12:59:22.683Z,97711.03
2023-01-09T13:01:54.323Z,97712.83
2023-01-09T13:04:32.271Z,97711.38
2023-01-09T13:07:07.113Z,97711.19
2023-01-09T13:09:44.745Z,97702.63
2023-01-09T13:12:21.564Z,97707.66
2023-01-09T13:14:58.577Z,97718.00
2023-01-09T13:17:38.189Z,97731.76
2023-01-09T13:20:22.241Z,97729.59
2023-01-09T13:22:55.120Z,97728.14
2023-01-09T13:25:45.857Z,97727.56
2023-01-09T13:28:22.270Z,97731.11
2023-01-09T13:31:14.509Z,97736.62
2023-01-09T13:33:50.931Z,97744.95
2023-01-09T13:36:33.167Z,97748.13
2023-01-09T13:39:04.744Z,97748.33
2023-01-09T13:42:03.810Z,97749.69
2023-01-09T13:44:34.998Z,97754.70
2023-01-09T13:47:06.201Z,97760.04
2023-01-09T13:50:01.558Z,97765.73
2023-01-09T13:52:37.306Z,97762.56
2023-01-09T13:55:36.286Z,97758.36
2023-01-09T13:58:22.865Z,97767.86
2023-01-09T14:00:59.723Z,97765.45
2023-01-09T14:03:36.761Z,97771.74
2023-01-09T14:06:28.274Z,97779.47
2023-01-09T14:09:21.640Z,97791.74
2023-01-09T14:12:06.214Z,97798.39
2023-01-09T14:14:41.307Z,97797.64
2023-01-09T14:17:24.715Z,97802.37
2023-01-09T14:20:00.268Z,97810.91
2023-01-09T14:22:42.480Z,97813.56
2023-01-09T14:25:25.936Z,97808.65
2023-01-09T14:28:22.987Z,97805.31
2023-01-09T14:31:09.820Z,97795.89
2023-01-09T14:33:40.841Z,97791.98
2023-01-09T14:36:19.551Z,97793.65
2023-01-09T14:38:52.862Z,97794.30
2023-01-09T14:41:45.965Z,97797.41
2023-01-09T14:44:29.877Z,97795.23
2023-01-09T14:47:07.940Z,97797.58
2023-01-09T14:49:43.249Z,97796.27
2023-01-09T14:52:21.536Z,97794.55
2023-01-09T14:54:53.169Z,97791.55
2023-01-09T14:57:28.821Z,97790.38
2023-01-09T15:00:02.427Z,97791.92
2023-01-09T15:02:36.370Z,97790.89
2023-01-09T15:05:10.476Z,97786.59
2023-01-09T15:07:45.414Z,97794.51
2023-01-09T15:10:21.416Z,97805.39
2023-01-09T15:12:54.479Z,97808.41
2023-01-09T15:15:26.508Z,97809.55
2023-01-09T15:18:00.425Z,97815.55
2023-01-09T15:20:34.369Z,97823.81
2023-01-09T15:23:05.620Z,97824.86
2023-01-09T15:25:40.481Z,97827.84
2023-01-09T15:28:29.721Z,97833.22
2023-01-09T15:31:16.712Z,97835.58
2023-01-09T15:33:49.359Z,97835.19
2023-01-09T15:36:23.022Z,97836.89
2023-01-09T15:38:55.199Z,97836.86
2023-01-09T15:41:47.915Z,97838.15
2023-01-09T15:44:22.543Z,97841.89
2023-01-09T15:46:58.186Z,97855.77
2023-01-09T15:49:30.196Z,97865.19
2023-01-09T15:52:02.261Z,97869.55
2023-01-09T15:54:34.141Z,97874.83
2023-01-09T15:57:35.893Z,97878.52
2023-01-09T16:00:41.982Z,97883.38
2023-01-09T16:03:20.474Z,97877.64
2023-01-09T16:05:58.091Z,97876.64
2023-01-09T16:08:35.330Z,97881.92
2023-01-09T16:11:10.716Z,97889.85
2023-01-09T16:13:47.231Z,97897.92
2023-01-09T16:16:27.508Z,97907.77
2023-01-09T16:18:59.789Z,97907.67
2023-01-09T16:21:38.851Z,97911.62
2023-01-09T16:24:28.728Z,97909.08
2023-01-09T16:27:22.650Z,97902.08
2023-01-09T16:29:57.945Z,97903.30
2023-01-09T16:32:33.608Z,97899.38
2023-01-09T16:35:06.427Z,97907.09
2023-01-09T16:37:37.710Z,97920.98
2023-01-09T16:40:32.260Z,97925.64
2023-01-09T16:43:04.682Z,97931.46
2023-01-09T16:45:38.626Z,97936.90
2023-01-09T16:48:16.271Z,97939.11
2023-01-09T16:50:47.653Z,97940.96
2023-01-09T16:53:22.259Z,97942.07
2023-01-09T16:55:54.387Z,97942.45
2023-01-09T16:58:28.844Z,97947.23
2023-01-09T17:00:59.942Z,97951.62
2023-01-09T17:03:33.849Z,97951.56
2023-01-09T17:06:08.265Z,97948.70
2023-01-09T17:08:39.821Z,97944.50
2023-01-09T17:11:20.191Z,97947.45
2023-01-09T17:13:51.113Z,97948.44
2023-01-09T17:16:22.197Z,97951.31
2023-01-09T17:18:53.681Z,97955.41
2023-01-09T17:21:26.643Z,97961.95
2023-01-09T17:24:12.269Z,97966.98
2023-01-09T17:27:04.624Z,97976.45
2023-01-09T17:29:36.481Z,97977.99
2023-01-09T17:32:07.893Z,97976.48
2023-01-09T17:34:39.203Z,97975.23
2023-01-09T17:37:14.461Z,97970.81
2023-01-09T17:39:45.628Z,97970.69
2023-01-09T17:42:16.419Z,97975.48
2023-01-09T17:44:47.268Z,97973.86
2023-01-09T17:47:18.364Z,97981.84
2023-01-09T17:49:49.514Z,97975.59
2023-01-09T17:52:22.111Z,97976.11
2023-01-09T17:54:53.083Z,97979.95
2023-01-09T17:57:24.076Z,97979.05
2023-01-09T17:59:54.877Z,97974.33
2023-01-09T18:02:25.895Z,97971.67
2023-01-09T18:04:57.030Z,97975.00
2023-01-09T18:07:28.074Z,97977.76
2023-01-09T18:09:59.103Z,97971.30
2023-01-09T18:12:30.188Z,97973.19
2023-01-09T18:15:05.674Z,97972.59
2023-01-09T18:17:36.742Z,97980.09
2023-01-09T18:20:10.806Z,97976.54
2023-01-09T18:22:41.853Z,97977.67
2023-01-09T18:25:13.162Z,97979.28
2023-01-09T18:27:43.979Z,97977.64
2023-01-09T18:30:15.757Z,97973.65
2023-01-09T18:32:46.807Z,97974.73
2023-01-09T18:35:18.272Z,97979.67
2023-01-09T18:37:49.722Z,97981.92
2023-01-09T18:40:21.331Z,97990.27
2023-01-09T18:42:52.813Z,97990.98
2023-01-09T18:45:24.015Z,97993.02
2023-01-09T18:47:55.335Z,97995.47
2023-01-09T18:50:26.806Z,98000.77
2023-01-09T18:52:58.190Z,98001.75
2023-01-09T18:55:30.002Z,98013.91
2023-01-09T18:58:01.193Z,98015.42
2023-01-09T19:00:32.329Z,98018.45
2023-01-09T19:03:03.340Z,98021.28
2023-01-09T19:05:36.087Z,98025.70
2023-01-09T19:08:07.645Z,98029.86
2023-01-09T19:10:38.722Z,98028.70
2023-01-09T19:13:09.810Z,98029.83
2023-01-09T19:15:40.820Z,98034.13
2023-01-09T19:18:12.704Z,98040.70
2023-01-09T19:20:44.122Z,98034.47
2023-01-09T19:23:16.594Z,98031.56
2023-01-09T19:25:48.134Z,98036.49
2023-01-09T19:28:19.264Z,98037.24
2023-01-09T19:30:55.138Z,98045.91
2023-01-09T19:33:26.165Z,98054.35
2023-01-09T19:35:57.357Z,98058.75
2023-01-09T19:38:28.394Z,98056.46
2023-01-09T19:41:09.178Z,98058.84
2023-01-09T19:43:40.623Z,98054.73
2023-01-09T19:46:14.159Z,98055.06
2023-01-09T19:48:45.924Z,98060.59
2023-01-09T19:51:18.440Z,98061.73
2023-01-09T19:53:54.000Z,98051.86
2023-01-09T19:56:27.486Z,98058.89
2023-01-09T19:59:00.050Z,98055.60
2023-01-09T20:01:33.354Z,98061.46
2023-01-09T20:04:07.939Z,98061.20
2023-01-09T20:06:41.528Z,98066.98
2023-01-09T20:09:13.874Z,98065.17
2023-01-09T20:11:45.231Z,98068.02
2023-01-09T20:14:17.464Z,98070.27
2023-01-09T20:16:49.931Z,98075.00
2023-01-09T20:19:21.141Z,98075.41
2023-01-09T20:21:52.173Z,98078.21
2023-01-09T20:24:23.039Z,98083.94
2023-01-09T20:26:54.171Z,98089.23
2023-01-09T20:29:25.003Z,98091.50
2023-01-09T20:31:56.226Z,98099.34
2023-01-09T20:34:27.108Z,98107.29
2023-01-09T20:36:58.160Z,98111.04
2023-01-09T20:39:29.072Z,98110.27
2023-01-09T20:42:00.460Z,98106.77
2023-01-09T20:44:31.197Z,98112.48
2023-01-09T20:47:02.016Z,98112.36
2023-01-09T20:49:32.969Z,98108.22
2023-01-09T20:52:04.269Z,98112.57
2023-01-09T20:54:35.964Z,98117.27
2023-01-09T20:57:07.010Z,98120.83
2023-01-09T20:59:37.955Z,98118.36
2023-01-09T21:02:14.479Z,98116.10
2023-01-09T21:04:45.362Z,98122.38
2023-01-09T21:07:17.481Z,98128.52
2023-01-09T21:09:48.564Z,98132.48
2023-01-09T21:12:35.923Z,98133.54
2023-01-09T21:15:09.913Z,98137.40
2023-01-09T21:17:42.285Z,98138.15
2023-01-09T21:20:15.730Z,98139.36
2023-01-09T21:22:46.599Z,98141.88
2023-01-09T21:25:17.873Z,98149.11
2023-01-09T21:27:49.900Z,98151.85
2023-01-09T21:30:21.087Z,98153.98
2023-01-09T21:32:52.546Z,98162.04
2023-01-09T21:35:23.281Z,98164.25
2023-01-09T21:37:54.216Z,98171.33
2023-01-09T21:40:25.168Z,98170.70
2023-01-09T21:43:13.410Z,98168.93
2023-01-09T21:46:13.307Z,98178.52
2023-01-09T21:48:44.043Z,98180.88
2023-01-09T21:51:14.786Z,98187.67
2023-01-09T21:53:45.460Z,98191.30
2023-01-09T21:56:16.204Z,98195.56
2023-01-09T21:58:47.815Z,98198.98
2023-01-09T22:01:18.482Z,98201.53
2023-01-09T22:03:49.454Z,98198.88
2023-01-09T22:06:20.559Z,98201.76
2023-01-09T22:08:51.790Z,98205.86
2023-01-09T22:11:22.742Z,98210.98
2023-01-09T22:13:54.092Z,98210.44
2023-01-09T22:16:26.893Z,98210.16
2023-01-09T22:18:58.770Z,98216.27
2023-01-09T22:21:29.592Z,98216.42
2023-01-09T22:24:01.754Z,98220.05
2023-01-09T22:26:33.710Z,98220.42
2023-01-09T22:29:04.692Z,98217.47
2023-01-09T22:31:35.486Z,98226.52
2023-01-09T22:34:06.824Z,98225.40
2023-01-09T22:36:38.146Z,98223.39
2023-01-09T22:39:08.949Z,98226.85
2023-01-09T22:41:39.678Z,98228.19
2023-01-09T22:44:13.096Z,98235.36
2023-01-09T22:46:43.940Z,98235.67
2023-01-09T22:49:14.631Z,98234.27
2023-01-09T22:51:45.391Z,98233.46
2023-01-09T22:54:16.374Z,98235.73
2023-01-09T22:56:47.077Z,98240.95
2023-01-09T22:59:18.126Z,98242.58
2023-01-09T23:01:48.770Z,98246.49
2023-01-09T23:04:19.879Z,98249.56
2023-01-09T23:06:51.180Z,98247.27
2023-01-09T23:09:21.990Z,98248.77
2023-01-09T23:12:06.186Z,98251.19
2023-01-09T23:14:39.036Z,98252.78
2023-01-09T23:17:12.062Z,98253.84
2023-01-09T23:19:42.964Z,98260.54
2023-01-09T23:22:13.866Z,98265.02
2023-01-09T23:24:44.671Z,98270.93
2023-01-09T23:27:15.446Z,98270.39
2023-01-09T23:29:46.572Z,98269.80
2023-01-09T23:32:17.635Z,98270.41
2023-01-09T23:34:49.744Z,98272.13
2023-01-09T23:37:20.416Z,98272.98
2023-01-09T23:39:51.131Z,98272.10
2023-01-09T23:42:53.836Z,98275.70
2023-01-09T23:45:24.657Z,98277.45
2023-01-09T23:47:55.671Z,98274.56
2023-01-09T23:50:26.348Z,98277.24
2023-01-09T23:52:57.025Z,98279.02
2023-01-09T23:55:28.323Z,98276.34
2023-01-09T23:57:59.123Z,98276.39
